Time;durP1;ratioP1;P1;durP2;ratioP2;P2;SDS_P1;SDS_P2;PMS_P1;PMS_P2;Temp;Humidity;BMP_temperature;BMP_pressure;BME280_temperature;BME280_humidity;BME280_pressure;Samples;Min_cycle;Max_cycle;Signal;HPM_P1;HPM_P2
2023/06/08 00:01:57;;;;;;;11.35;4.80;;;14.00;99.90;;;;;;5011984;28;20030;-75
2023/06/08 00:04:30;;;;;;;12.75;4.75;;;14.00;99.90;;;;;;5012620;28;20022;-75
2023/06/08 00:07:08;;;;;;;12.65;4.63;;;14.00;99.90;;;;;;5016306;28;20537;-75
2023/06/08 00:09:35;;;;;;;12.57;4.85;;;13.90;99.90;;;;;;5016648;28;20030;-74
2023/06/08 00:12:03;;;;;;;12.85;4.45;;;14.00;99.90;;;;;;5014268;28;20030;-74
2023/06/08 00:14:28;;;;;;;8.35;3.72;;;13.90;99.90;;;;;;5016370;28;20058;-74
2023/06/08 00:16:55;;;;;;;18.23;4.70;;;13.90;99.90;;;;;;5014813;28;20080;-75
2023/06/08 00:19:22;;;;;;;7.57;4.37;;;13.90;99.90;;;;;;5012118;28;20100;-73
2023/06/08 00:21:48;;;;;;;16.45;4.55;;;13.80;99.90;;;;;;5010539;28;20026;-72
2023/06/08 00:24:18;;;;;;;19.20;5.25;;;13.80;99.90;;;;;;5005867;28;20030;-73
2023/06/08 00:26:45;;;;;;;12.65;4.72;;;13.70;99.90;;;;;;4980763;28;20049;-74
2023/06/08 00:29:11;;;;;;;8.40;4.13;;;13.70;99.90;;;;;;5014916;28;20124;-73
2023/06/08 00:31:40;;;;;;;14.10;5.22;;;13.60;99.90;;;;;;5002721;28;20136;-72
2023/06/08 00:34:06;;;;;;;13.15;4.32;;;13.60;99.90;;;;;;4988059;28;20104;-72
2023/06/08 00:36:32;;;;;;;17.90;4.63;;;13.60;99.90;;;;;;4991688;28;20050;-71
2023/06/08 00:38:58;;;;;;;11.15;4.65;;;13.50;99.90;;;;;;4982003;28;20596;-72
2023/06/08 00:41:23;;;;;;;14.48;4.88;;;13.50;99.90;;;;;;4988508;28;20418;-72
2023/06/08 00:43:49;;;;;;;16.92;4.85;;;13.50;99.90;;;;;;4974699;28;20045;-72
2023/06/08 00:46:16;;;;;;;13.07;4.60;;;13.50;99.90;;;;;;4981673;28;20081;-72
2023/06/08 00:48:43;;;;;;;9.57;5.07;;;13.50;99.90;;;;;;4993953;28;20461;-72
2023/06/08 00:51:10;;;;;;;14.90;4.45;;;13.40;99.90;;;;;;4994295;28;20026;-71
2023/06/08 00:53:37;;;;;;;12.52;4.45;;;13.40;99.90;;;;;;4974425;28;20043;-71
2023/06/08 00:56:04;;;;;;;10.23;4.57;;;13.30;99.90;;;;;;4974750;28;20043;-72
2023/06/08 00:58:30;;;;;;;11.90;5.07;;;13.30;99.90;;;;;;4974190;28;20427;-72
2023/06/08 01:01:01;;;;;;;19.00;4.88;;;13.20;99.90;;;;;;4955549;29;20113;-72
2023/06/08 01:03:38;;;;;;;12.32;4.63;;;13.10;99.90;;;;;;4878779;29;20101;-72
2023/06/08 01:06:07;;;;;;;16.47;4.90;;;13.10;99.90;;;;;;4878971;29;20045;-72
2023/06/08 01:09:00;;;;;;;15.38;4.13;;;13.10;99.90;;;;;;4878630;29;20273;-72
2023/06/08 01:11:47;;;;;;;15.05;5.38;;;13.10;99.90;;;;;;4879747;29;20112;-73
2023/06/08 01:14:38;;;;;;;23.48;4.72;;;13.10;99.90;;;;;;4879867;29;20114;-72
2023/06/08 01:17:08;;;;;;;10.00;4.40;;;13.00;99.90;;;;;;4876783;29;20495;-73
2023/06/08 01:19:47;;;;;;;12.65;5.70;;;13.00;99.90;;;;;;4877923;29;20518;-73
2023/06/08 01:22:27;;;;;;;12.82;4.97;;;12.90;99.90;;;;;;4874278;29;20093;-73
2023/06/08 01:24:59;;;;;;;14.63;5.00;;;12.90;99.90;;;;;;4886343;29;20557;-71
2023/06/08 01:27:29;;;;;;;10.13;5.00;;;12.80;99.90;;;;;;4916805;29;20465;-72
2023/06/08 01:29:54;;;;;;;11.95;4.97;;;12.80;99.90;;;;;;4915499;29;20051;-72
2023/06/08 01:32:20;;;;;;;13.18;5.80;;;12.80;99.90;;;;;;4929356;29;20456;-72
2023/06/08 01:34:49;;;;;;;11.90;5.07;;;12.80;99.90;;;;;;4975967;28;20049;-72
2023/06/08 01:37:28;;;;;;;14.52;5.53;;;12.80;99.90;;;;;;5013500;28;20053;-73
2023/06/08 01:40:00;;;;;;;14.35;5.72;;;12.80;99.90;;;;;;5013705;28;20030;-72
2023/06/08 01:42:28;;;;;;;19.45;5.07;;;12.80;99.90;;;;;;5012939;28;20359;-73
2023/06/08 01:45:02;;;;;;;14.68;5.13;;;12.70;99.90;;;;;;5014582;28;20469;-74
2023/06/08 01:47:51;;;;;;;17.48;5.00;;;12.70;99.90;;;;;;5015115;28;20402;-73
2023/06/08 01:50:19;;;;;;;16.15;5.47;;;12.60;99.90;;;;;;5014530;28;20584;-73
2023/06/08 01:52:45;;;;;;;10.23;4.90;;;12.50;99.90;;;;;;5014186;28;20087;-71
2023/06/08 01:55:19;;;;;;;8.63;5.28;;;12.50;99.90;;;;;;5030108;28;20486;-72
2023/06/08 01:57:44;;;;;;;5.78;4.70;;;12.60;99.90;;;;;;5012192;28;20032;-73
2023/06/08 02:00:15;;;;;;;16.80;6.47;;;12.60;99.90;;;;;;5014611;28;20490;-72
2023/06/08 02:02:41;;;;;;;12.38;4.55;;;12.50;99.90;;;;;;5029443;28;20058;-73
2023/06/08 02:05:10;;;;;;;14.65;5.63;;;12.50;99.90;;;;;;5014543;28;20123;-73
2023/06/08 02:07:39;;;;;;;19.85;6.00;;;12.40;99.90;;;;;;5015171;28;20053;-72
2023/06/08 02:10:08;;;;;;;17.52;5.90;;;12.40;99.90;;;;;;5014570;28;20033;-72
2023/06/08 02:12:34;;;;;;;14.18;5.97;;;12.40;99.90;;;;;;5013398;28;20037;-71
2023/06/08 02:15:01;;;;;;;10.57;5.60;;;12.40;99.90;;;;;;5014163;28;20026;-71
2023/06/08 02:17:33;;;;;;;14.27;5.10;;;12.30;99.90;;;;;;5014134;28;20053;-72
2023/06/08 02:20:05;;;;;;;9.63;4.93;;;12.30;99.90;;;;;;5012830;28;20072;-71
2023/06/08 02:22:31;;;;;;;9.95;5.47;;;12.30;99.90;;;;;;5013569;28;20022;-72
2023/06/08 02:24:57;;;;;;;12.05;5.55;;;12.30;99.90;;;;;;5013191;28;20532;-72
2023/06/08 02:27:22;;;;;;;15.68;6.10;;;12.30;99.90;;;;;;5029168;28;20120;-69
2023/06/08 02:29:48;;;;;;;14.20;5.90;;;12.20;99.90;;;;;;5013580;28;20036;-71
2023/06/08 02:32:14;;;;;;;14.82;6.15;;;12.20;99.90;;;;;;5016206;28;20064;-71
2023/06/08 02:34:40;;;;;;;11.57;6.55;;;12.20;99.90;;;;;;5008169;28;20034;-71
2023/06/08 02:37:06;;;;;;;13.32;6.00;;;12.20;99.90;;;;;;5011601;28;20115;-71
2023/06/08 02:39:32;;;;;;;16.55;6.65;;;12.10;99.90;;;;;;5011822;28;20058;-71
2023/06/08 02:41:57;;;;;;;14.32;5.93;;;12.20;99.90;;;;;;5013006;28;20101;-71
2023/06/08 02:44:23;;;;;;;15.95;6.28;;;12.20;99.90;;;;;;4997016;28;20026;-71
2023/06/08 02:46:48;;;;;;;15.63;6.05;;;12.10;99.90;;;;;;5010515;28;20041;-71
2023/06/08 02:49:14;;;;;;;19.00;6.38;;;12.10;99.90;;;;;;5011842;28;20052;-72
2023/06/08 02:51:40;;;;;;;13.18;5.95;;;12.20;99.90;;;;;;5027495;28;20026;-72
2023/06/08 02:54:06;;;;;;;19.50;5.90;;;12.10;99.90;;;;;;5013608;28;20101;-71
2023/06/08 02:56:31;;;;;;;12.80;7.47;;;12.10;99.90;;;;;;5010470;28;20646;-72
2023/06/08 02:58:57;;;;;;;16.60;6.47;;;12.10;99.90;;;;;;5012139;28;20030;-70
2023/06/08 03:01:23;;;;;;;12.45;5.57;;;12.00;99.90;;;;;;5013830;28;20414;-71
2023/06/08 03:03:51;;;;;;;16.20;6.47;;;12.00;99.90;;;;;;4999297;28;20034;-72
2023/06/08 03:06:18;;;;;;;22.88;6.90;;;12.00;99.90;;;;;;5007031;28;20025;-72
2023/06/08 03:08:53;;;;;;;21.33;7.70;;;11.90;99.90;;;;;;5013630;28;20064;-71
2023/06/08 03:11:22;;;;;;;12.90;6.97;;;12.00;99.90;;;;;;5012731;28;20101;-70
2023/06/08 03:13:48;;;;;;;18.23;6.32;;;12.00;99.90;;;;;;5010019;28;20061;-70
2023/06/08 03:16:14;;;;;;;17.50;6.43;;;11.90;99.90;;;;;;5012803;28;20030;-70
2023/06/08 03:18:41;;;;;;;12.35;6.90;;;11.90;99.90;;;;;;5011201;28;20029;-71
2023/06/08 03:21:12;;;;;;;16.85;7.53;;;11.80;99.90;;;;;;5008204;28;20022;-70
2023/06/08 03:23:38;;;;;;;15.00;6.80;;;11.80;99.90;;;;;;5011161;28;20029;-70
2023/06/08 03:26:04;;;;;;;23.25;7.28;;;11.80;99.90;;;;;;5012607;28;20049;-70
2023/06/08 03:28:30;;;;;;;17.20;7.38;;;11.80;99.90;;;;;;5013276;28;20037;-72
2023/06/08 03:30:56;;;;;;;18.60;6.03;;;11.90;99.90;;;;;;5012422;28;20049;-73
2023/06/08 03:33:23;;;;;;;17.35;7.05;;;11.90;99.90;;;;;;5013175;28;20394;-71
2023/06/08 03:35:49;;;;;;;14.32;6.80;;;11.90;99.90;;;;;;5011258;28;20038;-72
2023/06/08 03:38:15;;;;;;;13.02;6.65;;;12.00;99.90;;;;;;5012308;28;20045;-72
2023/06/08 03:40:41;;;;;;;16.90;7.22;;;11.90;99.90;;;;;;5013611;28;20033;-72
2023/06/08 03:43:06;;;;;;;16.73;7.10;;;11.90;99.90;;;;;;5017116;28;20029;-73
2023/06/08 03:45:32;;;;;;;20.23;8.20;;;11.90;99.90;;;;;;5016995;28;20037;-72
2023/06/08 03:47:57;;;;;;;16.38;7.07;;;11.90;99.90;;;;;;5016264;28;20410;-72
2023/06/08 03:50:23;;;;;;;22.65;8.25;;;11.90;99.90;;;;;;5015744;28;20056;-71
2023/06/08 03:52:49;;;;;;;18.85;6.57;;;11.90;99.90;;;;;;4995334;28;20046;-72
2023/06/08 03:55:16;;;;;;;12.15;7.05;;;11.90;99.90;;;;;;5012425;28;20033;-71
2023/06/08 03:57:42;;;;;;;21.10;7.00;;;12.00;99.90;;;;;;4995063;28;20046;-72
2023/06/08 04:00:11;;;;;;;16.85;6.55;;;12.00;99.90;;;;;;4993434;28;20526;-71
2023/06/08 04:02:40;;;;;;;15.85;6.47;;;12.00;99.90;;;;;;4978073;28;20081;-71
2023/06/08 04:05:07;;;;;;;13.93;6.90;;;12.10;99.90;;;;;;4994298;28;20494;-72
2023/06/08 04:07:34;;;;;;;18.60;6.63;;;12.10;99.90;;;;;;4977380;28;20093;-72
2023/06/08 04:10:01;;;;;;;17.52;7.97;;;12.00;99.90;;;;;;4994753;28;20483;-72
2023/06/08 04:12:26;;;;;;;16.17;7.78;;;12.00;99.90;;;;;;4993842;28;20508;-72
2023/06/08 04:14:52;;;;;;;20.33;8.13;;;12.00;99.90;;;;;;4994883;28;20058;-72
2023/06/08 04:17:18;;;;;;;17.25;7.68;;;12.00;99.90;;;;;;4994199;28;20050;-72
2023/06/08 04:19:43;;;;;;;16.08;7.40;;;12.10;99.90;;;;;;4994844;28;20041;-72
2023/06/08 04:22:09;;;;;;;18.08;6.78;;;12.10;99.90;;;;;;4986540;28;20386;-72
2023/06/08 04:24:38;;;;;;;31.80;7.90;;;12.20;99.90;;;;;;4994620;28;20034;-71
2023/06/08 04:27:05;;;;;;;20.38;8.50;;;12.30;99.90;;;;;;4994626;28;20482;-73
2023/06/08 04:29:31;;;;;;;14.43;7.05;;;12.30;99.90;;;;;;5012957;28;20041;-71
2023/06/08 04:31:57;;;;;;;14.00;7.32;;;12.30;99.90;;;;;;5015011;28;20426;-72
2023/06/08 04:34:23;;;;;;;15.75;7.22;;;12.40;99.90;;;;;;5016255;28;20030;-73
2023/06/08 04:36:49;;;;;;;14.70;7.25;;;12.40;99.90;;;;;;5009253;28;20030;-72
2023/06/08 04:39:15;;;;;;;14.32;8.48;;;12.40;99.90;;;;;;5014224;28;20501;-72
2023/06/08 04:41:45;;;;;;;14.07;7.40;;;12.40;99.90;;;;;;5016170;28;20022;-73
2023/06/08 04:44:13;;;;;;;16.10;7.40;;;12.40;99.90;;;;;;5016286;28;20466;-73
2023/06/08 04:46:42;;;;;;;17.08;7.78;;;12.40;99.90;;;;;;5015336;28;20024;-74
2023/06/08 04:49:09;;;;;;;13.07;7.15;;;12.50;99.90;;;;;;5015077;28;20489;-72
2023/06/08 04:51:39;;;;;;;21.65;7.47;;;12.50;99.90;;;;;;5013358;28;20687;-72
2023/06/08 04:54:05;;;;;;;24.40;7.47;;;12.50;99.90;;;;;;5011296;28;20026;-71
2023/06/08 04:56:33;;;;;;;16.67;7.45;;;12.50;99.90;;;;;;5031143;28;20018;-71
2023/06/08 04:58:59;;;;;;;22.45;8.05;;;12.40;99.90;;;;;;5015221;28;20068;-72
2023/06/08 05:01:26;;;;;;;17.08;7.63;;;12.50;99.90;;;;;;5015791;28;20018;-73
2023/06/08 05:03:51;;;;;;;17.92;7.50;;;12.50;99.90;;;;;;5015571;28;20026;-72
2023/06/08 05:06:17;;;;;;;17.63;7.82;;;12.50;99.90;;;;;;5015159;28;20382;-72
2023/06/08 05:08:42;;;;;;;21.08;7.63;;;12.60;99.90;;;;;;5007771;28;20026;-71
2023/06/08 05:11:08;;;;;;;22.65;6.95;;;12.60;99.90;;;;;;5015851;28;20030;-71
2023/06/08 05:13:34;;;;;;;27.50;8.02;;;12.60;99.90;;;;;;5015414;28;20025;-73
2023/06/08 05:16:00;;;;;;;18.10;6.80;;;12.70;99.90;;;;;;5015081;28;20029;-71
2023/06/08 05:18:26;;;;;;;13.25;6.78;;;12.70;99.90;;;;;;5015691;28;20026;-72
2023/06/08 05:20:52;;;;;;;14.50;6.50;;;12.70;99.90;;;;;;5015496;28;20018;-71
2023/06/08 05:23:17;;;;;;;18.23;7.47;;;12.70;99.90;;;;;;5003816;28;20022;-71
2023/06/08 05:25:43;;;;;;;17.83;7.20;;;12.70;99.90;;;;;;5012299;28;20422;-72
2023/06/08 05:28:09;;;;;;;25.02;7.63;;;12.60;99.90;;;;;;5015815;28;20076;-72
2023/06/08 05:30:35;;;;;;;23.80;6.78;;;12.70;99.90;;;;;;5015409;28;20069;-73
2023/06/08 05:33:01;;;;;;;14.13;6.55;;;12.60;99.90;;;;;;5013811;28;20116;-72
2023/06/08 05:35:27;;;;;;;12.05;6.82;;;12.60;99.90;;;;;;5015484;28;20208;-72
2023/06/08 05:37:53;;;;;;;14.05;6.43;;;12.70;99.90;;;;;;5007581;28;20034;-72
2023/06/08 05:40:18;;;;;;;15.88;6.35;;;12.80;99.90;;;;;;5014933;28;20371;-72
2023/06/08 05:42:44;;;;;;;18.35;7.07;;;12.80;99.90;;;;;;5013680;28;20058;-72
2023/06/08 05:45:11;;;;;;;15.88;6.18;;;12.90;99.90;;;;;;5015274;28;20486;-73
2023/06/08 05:47:37;;;;;;;8.85;5.50;;;13.00;99.90;;;;;;5012665;28;20062;-72
2023/06/08 05:50:03;;;;;;;18.33;6.38;;;13.10;99.90;;;;;;5014978;28;20105;-72
2023/06/08 05:52:31;;;;;;;13.40;6.28;;;13.20;99.90;;;;;;5011072;28;20113;-73
2023/06/08 05:54:57;;;;;;;;;;;13.30;99.90;;;;;;5007930;28;20026;-73
2023/06/08 05:57:23;;;;;;;10.25;5.38;;;13.50;99.90;;;;;;5015273;28;19936;-73
2023/06/08 05:59:48;;;;;;;13.10;5.55;;;13.60;99.90;;;;;;5030239;28;20021;-73
2023/06/08 06:02:14;;;;;;;13.88;5.90;;;13.80;99.90;;;;;;5014794;28;20097;-73
2023/06/08 06:04:40;;;;;;;13.18;5.47;;;13.90;99.90;;;;;;5014266;28;20026;-72
2023/06/08 06:07:06;;;;;;;8.45;4.68;;;14.00;99.90;;;;;;5014858;28;20029;-72
2023/06/08 06:09:33;;;;;;;10.57;5.47;;;14.00;99.90;;;;;;5006913;28;20025;-72
2023/06/08 06:11:59;;;;;;;12.77;4.95;;;14.10;99.90;;;;;;5014773;28;20026;-72
2023/06/08 06:14:24;;;;;;;12.63;4.80;;;14.30;99.90;;;;;;5028953;28;20498;-72
2023/06/08 06:16:50;;;;;;;11.90;5.20;;;14.30;99.90;;;;;;5014337;28;20030;-72
2023/06/08 06:19:16;;;;;;;10.32;4.75;;;14.30;99.90;;;;;;5004302;28;20558;-71
2023/06/08 06:21:41;;;;;;;11.13;4.97;;;14.40;99.90;;;;;;4994688;28;20509;-72
2023/06/08 06:24:07;;;;;;;8.88;4.47;;;14.60;99.90;;;;;;4999552;28;20022;-71
2023/06/08 06:26:33;;;;;;;13.18;4.13;;;14.70;99.90;;;;;;5011942;28;20033;-71
2023/06/08 06:28:58;;;;;;;9.93;5.45;;;14.80;99.90;;;;;;5012409;28;20030;-72
2023/06/08 06:31:24;;;;;;;18.33;5.22;;;14.90;99.90;;;;;;5013602;28;20128;-72
2023/06/08 06:33:51;;;;;;;13.80;4.68;;;14.70;99.90;;;;;;5013939;28;20026;-71
2023/06/08 06:36:16;;;;;;;9.00;4.32;;;14.50;99.90;;;;;;5013711;28;20037;-72
2023/06/08 06:38:42;;;;;;;10.25;4.68;;;14.50;99.90;;;;;;5013129;28;20100;-71
2023/06/08 06:41:08;;;;;;;12.35;5.13;;;14.30;99.90;;;;;;5013814;28;20030;-72
2023/06/08 06:43:33;;;;;;;7.95;3.53;;;14.20;99.90;;;;;;5013113;28;20498;-72
2023/06/08 06:45:59;;;;;;;11.30;5.05;;;14.10;99.90;;;;;;5013700;28;20105;-71
2023/06/08 06:48:25;;;;;;;17.45;5.47;;;14.10;99.90;;;;;;5014134;28;20072;-75
2023/06/08 06:50:51;;;;;;;10.05;4.88;;;14.10;99.90;;;;;;5013462;28;20026;-73
2023/06/08 06:53:16;;;;;;;14.25;4.25;;;14.10;99.90;;;;;;5009766;28;20065;-71
2023/06/08 06:55:42;;;;;;;7.43;4.32;;;14.10;99.90;;;;;;5010352;28;20030;-72
2023/06/08 06:58:10;;;;;;;14.60;5.10;;;14.20;99.90;;;;;;5027696;28;20036;-72
2023/06/08 07:00:37;;;;;;;11.63;4.88;;;14.30;99.90;;;;;;5012174;28;20026;-72
2023/06/08 07:03:07;;;;;;;9.10;5.10;;;14.80;99.90;;;;;;5012631;28;20014;-73
2023/06/08 07:05:36;;;;;;;9.98;4.63;;;15.20;99.90;;;;;;5013410;28;20030;-73
2023/06/08 07:08:02;;;;;;;16.35;4.55;;;15.50;99.90;;;;;;5012579;28;20124;-73
2023/06/08 07:10:29;;;;;;;11.60;4.82;;;15.70;99.90;;;;;;5013512;28;20057;-72
2023/06/08 07:12:56;;;;;;;6.65;4.43;;;16.10;99.90;;;;;;5011936;28;20428;-72
2023/06/08 07:15:22;;;;;;;11.90;3.77;;;16.50;99.90;;;;;;5012372;28;20026;-73
2023/06/08 07:17:48;;;;;;;10.32;4.50;;;17.10;99.90;;;;;;5013185;28;20767;-71
2023/06/08 07:20:14;;;;;;;10.50;5.20;;;17.40;99.90;;;;;;5013264;28;20026;-72
2023/06/08 07:22:40;;;;;;;8.07;4.22;;;17.90;99.90;;;;;;5012255;28;20193;-71
2023/06/08 07:25:06;;;;;;;13.57;4.30;;;18.60;99.90;;;;;;5012888;28;20037;-70
2023/06/08 07:27:32;;;;;;;8.05;4.40;;;18.70;99.90;;;;;;5013088;28;20486;-73
2023/06/08 07:29:58;;;;;;;6.68;4.25;;;18.10;99.90;;;;;;5012345;28;20029;-72
2023/06/08 07:32:26;;;;;;;8.98;4.18;;;17.70;99.90;;;;;;5013005;28;20093;-72
2023/06/08 07:34:52;;;;;;;9.07;4.07;;;17.60;99.90;;;;;;5013202;28;20030;-72
2023/06/08 07:37:18;;;;;;;8.25;4.88;;;17.40;99.90;;;;;;5012414;28;20037;-71
2023/06/08 07:39:43;;;;;;;9.45;4.65;;;17.90;99.90;;;;;;5013047;28;20030;-71
2023/06/08 07:42:09;;;;;;;14.57;4.32;;;18.50;99.90;;;;;;5012240;28;20088;-70
2023/06/08 07:44:35;;;;;;;11.85;4.10;;;18.80;99.90;;;;;;5013296;28;20125;-71
2023/06/08 07:47:02;;;;;;;8.43;4.40;;;19.10;99.90;;;;;;5012103;28;20038;-70
2023/06/08 07:49:29;;;;;;;12.90;5.60;;;19.10;99.90;;;;;;5013041;28;20053;-71
2023/06/08 07:51:54;;;;;;;8.40;4.32;;;18.90;99.90;;;;;;5011096;28;20026;-72
2023/06/08 07:54:22;;;;;;;15.27;4.63;;;18.90;99.90;;;;;;5012912;28;20077;-72
2023/06/08 07:56:48;;;;;;;9.48;4.28;;;19.00;99.90;;;;;;5012798;28;20049;-71
2023/06/08 07:59:14;;;;;;;13.88;4.72;;;19.10;99.90;;;;;;5015641;28;20026;-71
2023/06/08 08:01:42;;;;;;;10.13;4.50;;;19.20;99.90;;;;;;5011947;28;20022;-71
2023/06/08 08:04:12;;;;;;;10.48;4.50;;;19.20;99.90;;;;;;5011522;28;20398;-72
2023/06/08 08:06:38;;;;;;;15.68;4.35;;;18.90;99.90;;;;;;5012007;28;20029;-72
2023/06/08 08:09:05;;;;;;;8.05;3.97;;;18.70;99.90;;;;;;5010676;28;20058;-70
2023/06/08 08:11:31;;;;;;;9.35;4.82;;;18.70;99.90;;;;;;5012803;28;20026;-72
2023/06/08 08:13:56;;;;;;;6.72;3.88;;;18.60;99.90;;;;;;5011671;28;20037;-71
2023/06/08 08:16:22;;;;;;;7.47;3.95;;;18.70;99.90;;;;;;5012145;28;20036;-73
2023/06/08 08:18:48;;;;;;;7.40;4.25;;;19.00;99.90;;;;;;5012589;28;20034;-73
2023/06/08 08:21:14;;;;;;;5.22;3.40;;;19.30;99.90;;;;;;5011485;28;20037;-70
2023/06/08 08:23:39;;;;;;;9.68;4.30;;;19.80;99.90;;;;;;5010331;28;20535;-71
2023/06/08 08:26:05;;;;;;;8.60;4.32;;;20.10;99.90;;;;;;5012120;28;20037;-73
2023/06/08 08:28:31;;;;;;;10.88;3.83;;;20.30;99.90;;;;;;5016976;28;20025;-71
2023/06/08 08:30:57;;;;;;;7.25;3.47;;;20.30;99.90;;;;;;5015892;28;20042;-72
2023/06/08 08:33:24;;;;;;;11.07;4.30;;;20.60;99.90;;;;;;5016424;28;20501;-71
2023/06/08 08:35:50;;;;;;;11.45;4.88;;;20.40;99.90;;;;;;5011256;28;20128;-71
2023/06/08 08:38:16;;;;;;;12.82;3.72;;;20.40;99.90;;;;;;5014722;28;20109;-72
2023/06/08 08:40:42;;;;;;;9.25;4.70;;;20.20;99.90;;;;;;5015477;28;20558;-71
2023/06/08 08:43:38;;;;;;;8.60;4.32;;;20.60;99.90;;;;;;5012480;28;20036;-70
2023/06/08 08:46:06;;;;;;;;;;;21.00;99.90;;;;;;5005985;28;20084;-71
2023/06/08 08:48:35;;;;;;;12.02;4.70;;;21.20;99.90;;;;;;5015211;28;19963;-71
2023/06/08 08:51:00;;;;;;;6.90;4.15;;;21.00;99.90;;;;;;4992928;28;20080;-69
2023/06/08 08:53:30;;;;;;;7.55;3.70;;;20.80;99.90;;;;;;4991550;28;20058;-72
2023/06/08 08:56:03;;;;;;;6.82;4.03;;;21.10;99.90;;;;;;4980309;28;20069;-72
2023/06/08 08:58:30;;;;;;;11.15;4.47;;;21.00;99.90;;;;;;4961996;28;20113;-72
2023/06/08 09:00:57;;;;;;;11.68;5.00;;;21.30;99.90;;;;;;4992708;28;20065;-72
2023/06/08 09:03:22;;;;;;;7.47;5.05;;;21.30;99.90;;;;;;4991718;28;20192;-72
2023/06/08 09:05:54;;;;;;;11.43;3.67;;;21.20;99.90;;;;;;4987089;28;20522;-73
2023/06/08 09:08:22;;;;;;;9.88;4.07;;;21.30;99.90;;;;;;4989968;28;20058;-71
2023/06/08 09:11:07;;;;;;;14.10;4.88;;;21.40;99.90;;;;;;4993375;28;20054;-71
2023/06/08 09:13:34;;;;;;;8.57;5.10;;;21.30;99.90;;;;;;4975356;28;20026;-72
2023/06/08 09:16:21;;;;;;;11.15;3.90;;;21.50;99.90;;;;;;4991657;28;20042;-71
2023/06/08 09:19:03;;;;;;;12.45;5.10;;;21.40;99.90;;;;;;4986143;28;20060;-72
2023/06/08 09:21:29;;;;;;;8.68;4.60;;;21.50;99.90;;;;;;4990659;28;20038;-72
2023/06/08 09:24:16;;;;;;;11.88;5.28;;;21.60;99.90;;;;;;4997218;28;20026;-72
2023/06/08 09:26:56;;;;;;;9.93;5.03;;;21.40;99.90;;;;;;5001365;28;20041;-71
2023/06/08 09:29:44;;;;;;;10.10;4.68;;;21.50;99.90;;;;;;5009465;28;20026;-72
2023/06/08 09:32:16;;;;;;;6.85;4.35;;;21.50;99.90;;;;;;5014106;28;20056;-72
2023/06/08 09:34:49;;;;;;;8.90;4.18;;;21.50;99.90;;;;;;5014489;28;20140;-72
2023/06/08 09:37:15;;;;;;;14.50;5.32;;;21.40;99.90;;;;;;5011356;28;20041;-73
2023/06/08 09:39:42;;;;;;;11.23;4.90;;;21.40;99.90;;;;;;5011439;28;21578;-72
2023/06/08 09:42:09;;;;;;;10.88;5.10;;;21.10;99.90;;;;;;5015197;28;20057;-73
2023/06/08 09:44:35;;;;;;;16.02;5.78;;;20.80;99.90;;;;;;5015818;28;20493;-74
2023/06/08 09:47:21;;;;;;;15.73;5.40;;;20.90;99.90;;;;;;5014123;28;20028;-75
2023/06/08 09:49:51;;;;;;;13.40;5.18;;;20.80;99.90;;;;;;5013672;28;20038;-73
2023/06/08 09:52:21;;;;;;;8.30;4.72;;;20.70;99.90;;;;;;5014524;28;20497;-72
2023/06/08 09:54:47;;;;;;;12.45;4.78;;;20.90;99.90;;;;;;4999432;28;20083;-74
2023/06/08 09:57:17;;;;;;;8.30;4.55;;;21.00;99.90;;;;;;4995714;28;20026;-72
2023/06/08 09:59:50;;;;;;;10.38;4.40;;;21.30;99.90;;;;;;4995653;28;20018;-71
2023/06/08 10:02:18;;;;;;;10.02;4.95;;;21.40;99.90;;;;;;5006685;28;20033;-72
2023/06/08 10:04:56;;;;;;;11.15;4.97;;;21.40;99.90;;;;;;4998776;28;20018;-71
2023/06/08 10:07:25;;;;;;;17.20;4.40;;;21.70;99.90;;;;;;5022520;28;20091;-72
2023/06/08 10:09:59;;;;;;;15.07;4.82;;;22.00;99.90;;;;;;5030849;28;20025;-72
2023/06/08 10:12:29;;;;;;;11.68;4.68;;;22.00;99.90;;;;;;4994817;28;20034;-71
2023/06/08 10:14:57;;;;;;;16.73;5.35;;;21.90;99.90;;;;;;4994742;28;20022;-72
2023/06/08 10:17:25;;;;;;;10.13;4.70;;;21.80;99.90;;;;;;5005731;28;20030;-72
2023/06/08 10:19:51;;;;;;;7.32;5.55;;;21.90;99.90;;;;;;5012535;28;20084;-71
2023/06/08 10:22:18;;;;;;;16.08;5.18;;;22.20;99.90;;;;;;5014256;28;20026;-72
2023/06/08 10:24:46;;;;;;;10.27;4.10;;;22.50;99.90;;;;;;4994939;28;20026;-72
2023/06/08 10:27:33;;;;;;;10.02;4.88;;;22.90;99.90;;;;;;4995511;28;20031;-72
2023/06/08 10:30:04;;;;;;;8.10;4.70;;;23.30;99.90;;;;;;4994527;28;20037;-72
2023/06/08 10:32:42;;;;;;;8.70;4.40;;;23.30;99.90;;;;;;4994760;28;20030;-72
2023/06/08 10:35:10;;;;;;;8.15;4.20;;;23.40;99.90;;;;;;4994593;28;20030;-71
2023/06/08 10:37:43;;;;;;;14.18;4.38;;;23.50;99.90;;;;;;4998225;28;20160;-72
2023/06/08 10:40:11;;;;;;;10.90;4.72;;;23.30;99.90;;;;;;5023950;28;20025;-72
2023/06/08 10:42:58;;;;;;;8.25;4.40;;;22.90;99.90;;;;;;5005591;28;20044;-72
2023/06/08 10:45:33;;;;;;;15.35;5.57;;;22.80;99.90;;;;;;4994246;28;20041;-72
2023/06/08 10:48:11;;;;;;;9.95;4.30;;;22.70;99.90;;;;;;4992802;28;20065;-73
2023/06/08 10:50:37;;;;;;;8.45;4.38;;;22.80;99.90;;;;;;4999995;28;20030;-72
2023/06/08 10:53:04;;;;;;;17.53;4.60;;;22.80;99.90;;;;;;5012632;28;20117;-72
2023/06/08 10:55:30;;;;;;;10.07;4.25;;;22.70;99.90;;;;;;5012077;28;20109;-71
2023/06/08 10:58:05;;;;;;;10.40;4.30;;;22.70;99.90;;;;;;5008827;28;20026;-73
2023/06/08 11:00:41;;;;;;;6.07;4.07;;;22.60;99.90;;;;;;5001856;28;20026;-72
2023/06/08 11:03:08;;;;;;;9.30;3.97;;;22.60;99.90;;;;;;5004926;28;20044;-73
2023/06/08 11:05:36;;;;;;;8.73;4.00;;;22.90;99.90;;;;;;5013639;28;20022;-72
2023/06/08 11:08:02;;;;;;;13.85;3.90;;;23.00;99.90;;;;;;5013462;28;20021;-71
2023/06/08 11:10:32;;;;;;;10.38;3.83;;;23.10;99.90;;;;;;5015766;28;20018;-72
2023/06/08 11:13:09;;;;;;;9.35;4.00;;;23.30;99.90;;;;;;5012655;28;20120;-72
2023/06/08 11:15:40;;;;;;;6.63;4.13;;;23.40;99.90;;;;;;5012611;28;20034;-72
2023/06/08 11:18:08;;;;;;;10.43;4.30;;;23.50;99.90;;;;;;5009225;28;20022;-73
2023/06/08 11:20:37;;;;;;;9.27;3.97;;;23.40;99.90;;;;;;5015846;28;20148;-72
2023/06/08 11:23:09;;;;;;;8.18;3.65;;;23.20;99.90;;;;;;4994952;28;20042;-72
2023/06/08 11:25:36;;;;;;;10.60;3.88;;;23.00;99.90;;;;;;4990175;28;20502;-71
2023/06/08 11:28:03;;;;;;;11.90;4.05;;;23.00;99.90;;;;;;4981841;28;20039;-72
2023/06/08 11:30:31;;;;;;;9.73;3.92;;;23.10;99.90;;;;;;4992659;28;20050;-72
2023/06/08 11:32:59;;;;;;;13.32;4.00;;;23.20;99.90;;;;;;4988862;28;20039;-72
2023/06/08 11:35:25;;;;;;;9.38;3.65;;;23.20;99.90;;;;;;4991421;28;20026;-71
2023/06/08 11:37:56;;;;;;;6.45;3.42;;;23.30;99.90;;;;;;4991341;28;20202;-70
2023/06/08 11:40:22;;;;;;;9.73;4.15;;;23.40;99.90;;;;;;4973286;28;20038;-73
2023/06/08 11:42:49;;;;;;;7.30;3.85;;;23.30;99.90;;;;;;4989662;28;20077;-72
2023/06/08 11:45:16;;;;;;;10.33;3.73;;;23.20;99.90;;;;;;4991122;28;20030;-72
2023/06/08 11:47:43;;;;;;;12.30;3.95;;;23.20;99.90;;;;;;4971582;28;20045;-72
2023/06/08 11:50:10;;;;;;;;;;;23.30;99.90;;;;;;4987292;28;20438;-71
2023/06/08 11:52:41;;;;;;;8.50;4.35;;;23.40;99.90;;;;;;4991254;28;20355;-72
2023/06/08 11:55:15;;;;;;;6.88;3.55;;;23.50;99.90;;;;;;5012196;28;20041;-72
2023/06/08 11:57:58;;;;;;;9.93;3.90;;;23.50;99.90;;;;;;5002576;28;20038;-72
2023/06/08 12:00:29;;;;;;;10.68;4.00;;;23.60;99.90;;;;;;5013845;28;20026;-72
2023/06/08 12:02:56;;;;;;;8.98;3.03;;;23.70;99.90;;;;;;5015410;28;20394;-71
2023/06/08 12:05:28;;;;;;;14.38;4.28;;;23.80;99.90;;;;;;5018685;28;20103;-71
2023/06/08 12:08:03;;;;;;;7.25;3.42;;;23.90;99.90;;;;;;5017384;28;20497;-71
2023/06/08 12:10:36;;;;;;;4.65;3.22;;;23.90;99.90;;;;;;5016743;28;20099;-71
2023/06/08 12:13:15;;;;;;;5.57;3.72;;;23.70;99.90;;;;;;5005814;28;20061;-71
2023/06/08 12:15:40;;;;;;;12.02;3.42;;;23.80;99.90;;;;;;4996841;28;20529;-72
2023/06/08 12:18:06;;;;;;;13.80;3.63;;;23.90;99.90;;;;;;5010976;28;20034;-72
2023/06/08 12:20:35;;;;;;;9.35;3.40;;;24.00;99.90;;;;;;5014846;28;20030;-72
2023/06/08 12:23:01;;;;;;;10.43;3.55;;;24.10;99.90;;;;;;5015264;28;20026;-72
2023/06/08 12:25:28;;;;;;;6.40;2.90;;;24.30;99.90;;;;;;5016487;28;20030;-71
2023/06/08 12:27:54;;;;;;;7.47;3.40;;;24.50;99.90;;;;;;5008653;28;20037;-72
2023/06/08 12:30:23;;;;;;;9.82;3.72;;;24.70;99.90;;;;;;4996294;28;20042;-72
2023/06/08 12:32:50;;;;;;;6.75;3.60;;;24.70;99.90;;;;;;4996888;28;20490;-71
2023/06/08 12:35:18;;;;;;;8.90;4.70;;;24.80;99.90;;;;;;4996653;28;20113;-72
2023/06/08 12:37:48;;;;;;;9.25;3.58;;;25.00;99.90;;;;;;5001570;28;20091;-72
2023/06/08 12:40:19;;;;;;;6.90;3.38;;;25.00;99.90;;;;;;5019361;28;20034;-72
2023/06/08 12:42:51;;;;;;;13.80;3.00;;;25.10;99.90;;;;;;5010868;28;20031;-72
2023/06/08 12:45:19;;;;;;;6.97;3.05;;;25.30;99.90;;;;;;4996167;28;20557;-74
2023/06/08 12:47:47;;;;;;;12.50;3.72;;;25.20;99.90;;;;;;4996414;28;20034;-73